sensor_id;sensor_type;location;lat;lon;timestamp;P1;durP1;ratioP1;P2;durP2;ratioP2
71667;SDS011;59504;54.806;9.640;2022-12-18T00:00:23;52.25;;;20.52;;
71667;SDS011;59504;54.806;9.640;2022-12-18T00:02:43;60.30;;;20.60;;
71667;SDS011;59504;54.806;9.640;2022-12-18T00:05:02;57.13;;;20.75;;
71667;SDS011;59504;54.806;9.640;2022-12-18T00:07:22;59.58;;;21.02;;
71667;SDS011;59504;54.806;9.640;2022-12-18T00:09:41;54.50;;;19.48;;
71667;SDS011;59504;54.806;9.640;2022-12-18T00:12:01;55.72;;;20.15;;
71667;SDS011;59504;54.806;9.640;2022-12-18T00:14:20;58.08;;;22.80;;
71667;SDS011;59504;54.806;9.640;2022-12-18T00:16:39;57.05;;;20.98;;
71667;SDS011;59504;54.806;9.640;2022-12-18T00:19:01;55.40;;;21.58;;
71667;SDS011;59504;54.806;9.640;2022-12-18T00:21:21;51.53;;;19.02;;
71667;SDS011;59504;54.806;9.640;2022-12-18T00:23:42;61.70;;;20.88;;
71667;SDS011;59504;54.806;9.640;2022-12-18T00:26:05;61.35;;;20.17;;
71667;SDS011;59504;54.806;9.640;2022-12-18T00:28:26;50.28;;;18.77;;
71667;SDS011;59504;54.806;9.640;2022-12-18T00:30:46;51.90;;;19.73;;
71667;SDS011;59504;54.806;9.640;2022-12-18T00:33:05;55.70;;;20.20;;
71667;SDS011;59504;54.806;9.640;2022-12-18T00:35:25;52.30;;;19.13;;
71667;SDS011;59504;54.806;9.640;2022-12-18T00:37:44;58.75;;;20.38;;
71667;SDS011;59504;54.806;9.640;2022-12-18T00:40:03;47.90;;;17.67;;
71667;SDS011;59504;54.806;9.640;2022-12-18T00:42:22;51.80;;;19.10;;
71667;SDS011;59504;54.806;9.640;2022-12-18T00:45:00;55.00;;;18.20;;
71667;SDS011;59504;54.806;9.640;2022-12-18T00:47:19;55.90;;;19.63;;
71667;SDS011;59504;54.806;9.640;2022-12-18T00:49:39;58.03;;;21.10;;
71667;SDS011;59504;54.806;9.640;2022-12-18T00:51:58;50.13;;;20.10;;
71667;SDS011;59504;54.806;9.640;2022-12-18T00:54:17;58.05;;;19.67;;
71667;SDS011;59504;54.806;9.640;2022-12-18T00:56:37;52.95;;;19.20;;
71667;SDS011;59504;54.806;9.640;2022-12-18T00:58:56;56.53;;;19.80;;
71667;SDS011;59504;54.806;9.640;2022-12-18T01:01:16;51.40;;;18.02;;
71667;SDS011;59504;54.806;9.640;2022-12-18T01:03:35;48.47;;;17.95;;
71667;SDS011;59504;54.806;9.640;2022-12-18T01:05:54;44.75;;;17.38;;
71667;SDS011;59504;54.806;9.640;2022-12-18T01:08:14;47.03;;;17.42;;
71667;SDS011;59504;54.806;9.640;2022-12-18T01:10:33;53.05;;;19.33;;
71667;SDS011;59504;54.806;9.640;2022-12-18T01:12:52;47.65;;;17.83;;
71667;SDS011;59504;54.806;9.640;2022-12-18T01:15:11;43.17;;;16.83;;
71667;SDS011;59504;54.806;9.640;2022-12-18T01:17:32;53.25;;;19.27;;
71667;SDS011;59504;54.806;9.640;2022-12-18T01:19:52;52.28;;;18.90;;
71667;SDS011;59504;54.806;9.640;2022-12-18T01:22:11;50.13;;;18.15;;
71667;SDS011;59504;54.806;9.640;2022-12-18T01:24:30;47.75;;;17.88;;
71667;SDS011;59504;54.806;9.640;2022-12-18T01:26:49;43.13;;;16.33;;
71667;SDS011;59504;54.806;9.640;2022-12-18T01:29:08;47.85;;;17.95;;
71667;SDS011;59504;54.806;9.640;2022-12-18T01:31:28;49.40;;;18.17;;
71667;SDS011;59504;54.806;9.640;2022-12-18T01:33:49;41.72;;;17.52;;
71667;SDS011;59504;54.806;9.640;2022-12-18T01:36:17;45.20;;;16.85;;
71667;SDS011;59504;54.806;9.640;2022-12-18T01:38:38;44.55;;;17.40;;
71667;SDS011;59504;54.806;9.640;2022-12-18T01:40:57;49.85;;;18.27;;
71667;SDS011;59504;54.806;9.640;2022-12-18T01:43:17;40.80;;;16.67;;
71667;SDS011;59504;54.806;9.640;2022-12-18T01:45:36;47.72;;;18.55;;
71667;SDS011;59504;54.806;9.640;2022-12-18T01:47:57;41.92;;;15.82;;
71667;SDS011;59504;54.806;9.640;2022-12-18T01:50:28;51.20;;;17.73;;
71667;SDS011;59504;54.806;9.640;2022-12-18T01:52:53;42.63;;;17.67;;
71667;SDS011;59504;54.806;9.640;2022-12-18T01:55:16;47.03;;;17.00;;
71667;SDS011;59504;54.806;9.640;2022-12-18T01:57:37;48.00;;;17.02;;
71667;SDS011;59504;54.806;9.640;2022-12-18T02:00:03;41.33;;;15.82;;
71667;SDS011;59504;54.806;9.640;2022-12-18T02:02:28;42.08;;;16.63;;
71667;SDS011;59504;54.806;9.640;2022-12-18T02:04:48;45.30;;;17.25;;
71667;SDS011;59504;54.806;9.640;2022-12-18T02:09:37;44.72;;;16.55;;
71667;SDS011;59504;54.806;9.640;2022-12-18T02:14:36;35.17;;;16.75;;
71667;SDS011;59504;54.806;9.640;2022-12-18T02:17:17;42.25;;;15.77;;
71667;SDS011;59504;54.806;9.640;2022-12-18T02:22:27;38.90;;;15.57;;
71667;SDS011;59504;54.806;9.640;2022-12-18T02:27:23;43.88;;;17.13;;
71667;SDS011;59504;54.806;9.640;2022-12-18T02:29:48;38.88;;;15.15;;
71667;SDS011;59504;54.806;9.640;2022-12-18T02:32:11;37.88;;;16.08;;
71667;SDS011;59504;54.806;9.640;2022-12-18T02:34:36;42.83;;;17.00;;
71667;SDS011;59504;54.806;9.640;2022-12-18T02:36:57;44.78;;;17.05;;
71667;SDS011;59504;54.806;9.640;2022-12-18T02:39:20;39.50;;;14.75;;
71667;SDS011;59504;54.806;9.640;2022-12-18T02:41:40;39.53;;;15.70;;
71667;SDS011;59504;54.806;9.640;2022-12-18T02:44:00;37.42;;;15.00;;
71667;SDS011;59504;54.806;9.640;2022-12-18T02:46:28;42.72;;;16.35;;
71667;SDS011;59504;54.806;9.640;2022-12-18T02:48:51;39.05;;;16.98;;
71667;SDS011;59504;54.806;9.640;2022-12-18T02:53:51;47.47;;;17.80;;
71667;SDS011;59504;54.806;9.640;2022-12-18T02:56:20;46.50;;;17.35;;
71667;SDS011;59504;54.806;9.640;2022-12-18T03:01:42;36.58;;;15.70;;
71667;SDS011;59504;54.806;9.640;2022-12-18T03:04:28;39.67;;;15.57;;
71667;SDS011;59504;54.806;9.640;2022-12-18T03:06:58;35.50;;;15.05;;
71667;SDS011;59504;54.806;9.640;2022-12-18T03:09:22;36.80;;;15.85;;
71667;SDS011;59504;54.806;9.640;2022-12-18T03:11:52;40.22;;;15.70;;
71667;SDS011;59504;54.806;9.640;2022-12-18T03:14:35;40.95;;;15.65;;
71667;SDS011;59504;54.806;9.640;2022-12-18T03:16:59;42.30;;;16.63;;
71667;SDS011;59504;54.806;9.640;2022-12-18T03:21:49;43.50;;;16.65;;
71667;SDS011;59504;54.806;9.640;2022-12-18T03:24:12;44.13;;;16.17;;
71667;SDS011;59504;54.806;9.640;2022-12-18T03:26:34;39.40;;;16.52;;
71667;SDS011;59504;54.806;9.640;2022-12-18T03:29:06;43.00;;;16.27;;
71667;SDS011;59504;54.806;9.640;2022-12-18T03:31:29;46.80;;;17.63;;
71667;SDS011;59504;54.806;9.640;2022-12-18T03:36:17;42.95;;;16.83;;
71667;SDS011;59504;54.806;9.640;2022-12-18T03:38:37;51.03;;;17.63;;
71667;SDS011;59504;54.806;9.640;2022-12-18T03:40:59;44.75;;;15.68;;
71667;SDS011;59504;54.806;9.640;2022-12-18T03:43:35;46.95;;;18.13;;
71667;SDS011;59504;54.806;9.640;2022-12-18T03:46:41;47.67;;;18.38;;
71667;SDS011;59504;54.806;9.640;2022-12-18T03:49:09;45.30;;;17.13;;
71667;SDS011;59504;54.806;9.640;2022-12-18T03:51:46;50.10;;;19.60;;
71667;SDS011;59504;54.806;9.640;2022-12-18T03:54:10;43.33;;;16.77;;
71667;SDS011;59504;54.806;9.640;2022-12-18T03:56:32;45.28;;;15.20;;
71667;SDS011;59504;54.806;9.640;2022-12-18T03:58:55;41.28;;;16.92;;
71667;SDS011;59504;54.806;9.640;2022-12-18T04:01:17;40.90;;;16.45;;
71667;SDS011;59504;54.806;9.640;2022-12-18T04:03:38;42.30;;;17.27;;
71667;SDS011;59504;54.806;9.640;2022-12-18T04:05:58;45.65;;;16.02;;
71667;SDS011;59504;54.806;9.640;2022-12-18T04:08:19;43.50;;;16.52;;
71667;SDS011;59504;54.806;9.640;2022-12-18T04:10:40;39.97;;;15.05;;
71667;SDS011;59504;54.806;9.640;2022-12-18T04:12:59;43.50;;;16.45;;
71667;SDS011;59504;54.806;9.640;2022-12-18T04:15:18;47.15;;;17.30;;
71667;SDS011;59504;54.806;9.640;2022-12-18T04:17:38;38.67;;;15.18;;
71667;SDS011;59504;54.806;9.640;2022-12-18T04:20:01;45.60;;;17.30;;
71667;SDS011;59504;54.806;9.640;2022-12-18T04:22:21;42.58;;;17.17;;
71667;SDS011;59504;54.806;9.640;2022-12-18T04:24:40;43.45;;;17.38;;
71667;SDS011;59504;54.806;9.640;2022-12-18T04:26:59;43.80;;;16.42;;
71667;SDS011;59504;54.806;9.640;2022-12-18T04:29:18;41.13;;;16.33;;
71667;SDS011;59504;54.806;9.640;2022-12-18T04:31:37;48.45;;;18.92;;
71667;SDS011;59504;54.806;9.640;2022-12-18T04:33:57;45.65;;;16.90;;
71667;SDS011;59504;54.806;9.640;2022-12-18T04:36:16;48.53;;;18.67;;
71667;SDS011;59504;54.806;9.640;2022-12-18T04:38:35;47.40;;;18.15;;
71667;SDS011;59504;54.806;9.640;2022-12-18T04:40:54;42.50;;;17.50;;
71667;SDS011;59504;54.806;9.640;2022-12-18T04:43:13;47.15;;;18.13;;
71667;SDS011;59504;54.806;9.640;2022-12-18T04:45:32;48.65;;;17.65;;
71667;SDS011;59504;54.806;9.640;2022-12-18T04:47:52;48.45;;;18.65;;
71667;SDS011;59504;54.806;9.640;2022-12-18T04:50:11;50.00;;;17.85;;
71667;SDS011;59504;54.806;9.640;2022-12-18T04:52:30;44.42;;;17.67;;
71667;SDS011;59504;54.806;9.640;2022-12-18T04:54:49;42.03;;;17.00;;
71667;SDS011;59504;54.806;9.640;2022-12-18T04:57:08;45.85;;;18.00;;
71667;SDS011;59504;54.806;9.640;2022-12-18T04:59:27;43.67;;;17.10;;
71667;SDS011;59504;54.806;9.640;2022-12-18T05:01:46;48.20;;;17.13;;
71667;SDS011;59504;54.806;9.640;2022-12-18T05:04:05;47.17;;;18.10;;
71667;SDS011;59504;54.806;9.640;2022-12-18T05:06:25;49.00;;;18.40;;
71667;SDS011;59504;54.806;9.640;2022-12-18T05:08:44;45.47;;;16.75;;
71667;SDS011;59504;54.806;9.640;2022-12-18T05:13:26;40.08;;;16.70;;
71667;SDS011;59504;54.806;9.640;2022-12-18T05:15:50;47.80;;;18.83;;
71667;SDS011;59504;54.806;9.640;2022-12-18T05:18:10;40.95;;;16.90;;
71667;SDS011;59504;54.806;9.640;2022-12-18T05:20:30;50.17;;;17.13;;
71667;SDS011;59504;54.806;9.640;2022-12-18T05:22:50;41.20;;;16.70;;
71667;SDS011;59504;54.806;9.640;2022-12-18T05:25:10;46.13;;;16.88;;
71667;SDS011;59504;54.806;9.640;2022-12-18T05:27:29;45.58;;;17.38;;
71667;SDS011;59504;54.806;9.640;2022-12-18T05:29:48;48.20;;;17.20;;
71667;SDS011;59504;54.806;9.640;2022-12-18T05:32:07;38.92;;;16.67;;
71667;SDS011;59504;54.806;9.640;2022-12-18T05:34:27;42.05;;;17.73;;
71667;SDS011;59504;54.806;9.640;2022-12-18T05:36:47;42.55;;;16.83;;
71667;SDS011;59504;54.806;9.640;2022-12-18T05:39:06;55.53;;;18.52;;
71667;SDS011;59504;54.806;9.640;2022-12-18T05:41:25;48.97;;;18.15;;
71667;SDS011;59504;54.806;9.640;2022-12-18T05:43:44;57.20;;;18.00;;
71667;SDS011;59504;54.806;9.640;2022-12-18T05:46:04;45.97;;;17.73;;
71667;SDS011;59504;54.806;9.640;2022-12-18T05:48:25;42.75;;;17.75;;
71667;SDS011;59504;54.806;9.640;2022-12-18T05:50:45;50.15;;;18.10;;
71667;SDS011;59504;54.806;9.640;2022-12-18T05:53:06;45.83;;;18.25;;
71667;SDS011;59504;54.806;9.640;2022-12-18T05:55:26;53.95;;;18.98;;
71667;SDS011;59504;54.806;9.640;2022-12-18T05:57:45;46.00;;;16.92;;
71667;SDS011;59504;54.806;9.640;2022-12-18T06:00:05;47.65;;;18.42;;
71667;SDS011;59504;54.806;9.640;2022-12-18T06:02:25;50.72;;;18.92;;
71667;SDS011;59504;54.806;9.640;2022-12-18T06:04:44;51.25;;;18.70;;
71667;SDS011;59504;54.806;9.640;2022-12-18T06:07:03;48.22;;;18.77;;
71667;SDS011;59504;54.806;9.640;2022-12-18T06:09:22;50.25;;;18.70;;
71667;SDS011;59504;54.806;9.640;2022-12-18T06:11:41;56.88;;;19.77;;
71667;SDS011;59504;54.806;9.640;2022-12-18T06:14:00;50.13;;;18.85;;
71667;SDS011;59504;54.806;9.640;2022-12-18T06:16:19;51.33;;;18.33;;
71667;SDS011;59504;54.806;9.640;2022-12-18T06:18:39;58.75;;;19.75;;
71667;SDS011;59504;54.806;9.640;2022-12-18T06:20:58;50.10;;;19.13;;
71667;SDS011;59504;54.806;9.640;2022-12-18T06:23:19;53.55;;;19.95;;
71667;SDS011;59504;54.806;9.640;2022-12-18T06:25:38;54.85;;;19.13;;
71667;SDS011;59504;54.806;9.640;2022-12-18T06:27:58;66.88;;;20.08;;
71667;SDS011;59504;54.806;9.640;2022-12-18T06:30:17;59.20;;;19.08;;
71667;SDS011;59504;54.806;9.640;2022-12-18T06:32:37;54.25;;;18.75;;
71667;SDS011;59504;54.806;9.640;2022-12-18T06:34:56;50.80;;;19.52;;
71667;SDS011;59504;54.806;9.640;2022-12-18T06:37:15;52.55;;;19.17;;
71667;SDS011;59504;54.806;9.640;2022-12-18T06:39:34;49.60;;;19.88;;
71667;SDS011;59504;54.806;9.640;2022-12-18T06:41:53;51.63;;;19.88;;
71667;SDS011;59504;54.806;9.640;2022-12-18T06:44:12;56.53;;;20.70;;
71667;SDS011;59504;54.806;9.640;2022-12-18T06:46:31;57.78;;;20.05;;
71667;SDS011;59504;54.806;9.640;2022-12-18T06:48:50;54.88;;;18.63;;
71667;SDS011;59504;54.806;9.640;2022-12-18T06:51:10;58.08;;;19.75;;
71667;SDS011;59504;54.806;9.640;2022-12-18T06:53:29;54.63;;;19.92;;
71667;SDS011;59504;54.806;9.640;2022-12-18T06:55:48;50.22;;;19.13;;
71667;SDS011;59504;54.806;9.640;2022-12-18T06:58:07;55.10;;;19.40;;
71667;SDS011;59504;54.806;9.640;2022-12-18T07:00:27;56.38;;;19.95;;
71667;SDS011;59504;54.806;9.640;2022-12-18T07:02:46;50.22;;;19.85;;
71667;SDS011;59504;54.806;9.640;2022-12-18T07:05:06;51.35;;;19.33;;
71667;SDS011;59504;54.806;9.640;2022-12-18T07:07:25;50.75;;;19.83;;
71667;SDS011;59504;54.806;9.640;2022-12-18T07:09:44;56.78;;;21.00;;
71667;SDS011;59504;54.806;9.640;2022-12-18T07:12:04;53.00;;;20.50;;
71667;SDS011;59504;54.806;9.640;2022-12-18T07:14:23;50.03;;;19.00;;
71667;SDS011;59504;54.806;9.640;2022-12-18T07:16:42;51.55;;;18.95;;
71667;SDS011;59504;54.806;9.640;2022-12-18T07:19:01;46.25;;;18.33;;
71667;SDS011;59504;54.806;9.640;2022-12-18T07:21:21;47.08;;;17.40;;
71667;SDS011;59504;54.806;9.640;2022-12-18T07:23:41;50.53;;;20.63;;
71667;SDS011;59504;54.806;9.640;2022-12-18T07:26:01;45.92;;;18.10;;
71667;SDS011;59504;54.806;9.640;2022-12-18T07:28:22;53.25;;;19.02;;
71667;SDS011;59504;54.806;9.640;2022-12-18T07:30:42;47.47;;;19.20;;
71667;SDS011;59504;54.806;9.640;2022-12-18T07:33:01;46.40;;;18.23;;
71667;SDS011;59504;54.806;9.640;2022-12-18T07:35:20;47.67;;;18.58;;
71667;SDS011;59504;54.806;9.640;2022-12-18T07:37:39;42.70;;;17.35;;
71667;SDS011;59504;54.806;9.640;2022-12-18T07:39:58;41.22;;;15.95;;
71667;SDS011;59504;54.806;9.640;2022-12-18T07:42:18;52.22;;;18.08;;
71667;SDS011;59504;54.806;9.640;2022-12-18T07:44:49;40.42;;;17.60;;
71667;SDS011;59504;54.806;9.640;2022-12-18T07:47:09;49.72;;;19.40;;
71667;SDS011;59504;54.806;9.640;2022-12-18T07:49:28;58.85;;;22.58;;
71667;SDS011;59504;54.806;9.640;2022-12-18T07:51:47;58.33;;;23.48;;
71667;SDS011;59504;54.806;9.640;2022-12-18T07:54:07;50.25;;;20.73;;
71667;SDS011;59504;54.806;9.640;2022-12-18T07:56:26;52.75;;;21.85;;
71667;SDS011;59504;54.806;9.640;2022-12-18T07:58:45;83.68;;;34.35;;
71667;SDS011;59504;54.806;9.640;2022-12-18T08:03:28;51.13;;;20.70;;
71667;SDS011;59504;54.806;9.640;2022-12-18T08:05:46;41.05;;;18.63;;
71667;SDS011;59504;54.806;9.640;2022-12-18T08:08:06;37.63;;;16.75;;
71667;SDS011;59504;54.806;9.640;2022-12-18T08:10:25;39.90;;;17.30;;
71667;SDS011;59504;54.806;9.640;2022-12-18T08:12:44;43.17;;;18.77;;
71667;SDS011;59504;54.806;9.640;2022-12-18T08:15:04;39.17;;;16.55;;
71667;SDS011;59504;54.806;9.640;2022-12-18T08:17:23;37.00;;;16.60;;
71667;SDS011;59504;54.806;9.640;2022-12-18T08:19:43;34.47;;;15.35;;
71667;SDS011;59504;54.806;9.640;2022-12-18T08:22:02;37.47;;;14.93;;
71667;SDS011;59504;54.806;9.640;2022-12-18T08:24:21;36.80;;;16.38;;
71667;SDS011;59504;54.806;9.640;2022-12-18T08:26:40;37.58;;;17.25;;
71667;SDS011;59504;54.806;9.640;2022-12-18T08:28:59;46.65;;;16.75;;
71667;SDS011;59504;54.806;9.640;2022-12-18T08:31:19;36.35;;;16.27;;
71667;SDS011;59504;54.806;9.640;2022-12-18T08:33:38;39.53;;;16.38;;
71667;SDS011;59504;54.806;9.640;2022-12-18T08:35:58;34.20;;;16.60;;
71667;SDS011;59504;54.806;9.640;2022-12-18T08:38:18;39.60;;;17.17;;
71667;SDS011;59504;54.806;9.640;2022-12-18T08:40:38;34.90;;;15.18;;
71667;SDS011;59504;54.806;9.640;2022-12-18T08:42:57;38.25;;;15.70;;
71667;SDS011;59504;54.806;9.640;2022-12-18T08:45:35;37.30;;;15.75;;
71667;SDS011;59504;54.806;9.640;2022-12-18T08:47:54;37.45;;;14.75;;
71667;SDS011;59504;54.806;9.640;2022-12-18T08:50:13;36.83;;;15.73;;
71667;SDS011;59504;54.806;9.640;2022-12-18T08:52:33;37.58;;;15.73;;
71667;SDS011;59504;54.806;9.640;2022-12-18T08:54:52;33.55;;;15.75;;
71667;SDS011;59504;54.806;9.640;2022-12-18T08:57:12;31.83;;;14.82;;
71667;SDS011;59504;54.806;9.640;2022-12-18T08:59:31;33.78;;;14.52;;
71667;SDS011;59504;54.806;9.640;2022-12-18T09:01:50;38.15;;;15.40;;
71667;SDS011;59504;54.806;9.640;2022-12-18T09:04:12;37.35;;;15.73;;
71667;SDS011;59504;54.806;9.640;2022-12-18T09:06:32;32.53;;;14.00;;
71667;SDS011;59504;54.806;9.640;2022-12-18T09:08:51;31.15;;;15.45;;
71667;SDS011;59504;54.806;9.640;2022-12-18T09:11:14;36.85;;;14.35;;
71667;SDS011;59504;54.806;9.640;2022-12-18T09:13:38;34.40;;;14.68;;
71667;SDS011;59504;54.806;9.640;2022-12-18T09:15:57;32.08;;;14.52;;
71667;SDS011;59504;54.806;9.640;2022-12-18T09:18:17;31.75;;;13.95;;
71667;SDS011;59504;54.806;9.640;2022-12-18T09:20:37;30.50;;;13.68;;
71667;SDS011;59504;54.806;9.640;2022-12-18T09:22:57;29.73;;;13.52;;
71667;SDS011;59504;54.806;9.640;2022-12-18T09:25:16;27.45;;;13.25;;
71667;SDS011;59504;54.806;9.640;2022-12-18T09:27:35;30.52;;;14.07;;
71667;SDS011;59504;54.806;9.640;2022-12-18T09:29:55;29.75;;;12.23;;
71667;SDS011;59504;54.806;9.640;2022-12-18T09:32:14;25.42;;;12.40;;
71667;SDS011;59504;54.806;9.640;2022-12-18T09:34:33;28.73;;;12.20;;
71667;SDS011;59504;54.806;9.640;2022-12-18T09:36:52;23.17;;;11.30;;
71667;SDS011;59504;54.806;9.640;2022-12-18T09:39:12;25.55;;;11.77;;
71667;SDS011;59504;54.806;9.640;2022-12-18T09:41:39;22.90;;;11.50;;
71667;SDS011;59504;54.806;9.640;2022-12-18T09:44:18;22.48;;;10.80;;
71667;SDS011;59504;54.806;9.640;2022-12-18T09:47:05;24.63;;;10.13;;
71667;SDS011;59504;54.806;9.640;2022-12-18T09:49:29;21.83;;;10.32;;
71667;SDS011;59504;54.806;9.640;2022-12-18T09:52:26;18.25;;;9.05;;
71667;SDS011;59504;54.806;9.640;2022-12-18T09:54:39;24.35;;;10.00;;
71667;SDS011;59504;54.806;9.640;2022-12-18T09:57:03;22.33;;;8.77;;
71667;SDS011;59504;54.806;9.640;2022-12-18T09:59:34;16.58;;;8.23;;
71667;SDS011;59504;54.806;9.640;2022-12-18T10:01:56;20.35;;;9.38;;
71667;SDS011;59504;54.806;9.640;2022-12-18T10:04:15;17.35;;;8.18;;
71667;SDS011;59504;54.806;9.640;2022-12-18T10:10:10;18.40;;;7.65;;
71667;SDS011;59504;54.806;9.640;2022-12-18T10:14:46;18.35;;;8.38;;
71667;SDS011;59504;54.806;9.640;2022-12-18T10:17:51;18.33;;;8.48;;
71667;SDS011;59504;54.806;9.640;2022-12-18T10:23:11;17.13;;;7.10;;
71667;SDS011;59504;54.806;9.640;2022-12-18T10:25:50;14.48;;;7.10;;
71667;SDS011;59504;54.806;9.640;2022-12-18T10:28:22;13.30;;;7.00;;
71667;SDS011;59504;54.806;9.640;2022-12-18T10:30:43;17.10;;;7.57;;
71667;SDS011;59504;54.806;9.640;2022-12-18T10:33:02;15.25;;;7.00;;
71667;SDS011;59504;54.806;9.640;2022-12-18T10:35:23;13.25;;;7.63;;
71667;SDS011;59504;54.806;9.640;2022-12-18T10:38:00;19.83;;;7.00;;
71667;SDS011;59504;54.806;9.640;2022-12-18T10:40:26;16.25;;;7.40;;
71667;SDS011;59504;54.806;9.640;2022-12-18T10:42:45;15.27;;;7.22;;
71667;SDS011;59504;54.806;9.640;2022-12-18T10:45:16;17.33;;;6.88;;
71667;SDS011;59504;54.806;9.640;2022-12-18T10:47:43;15.95;;;7.35;;
71667;SDS011;59504;54.806;9.640;2022-12-18T10:50:13;19.83;;;8.27;;
71667;SDS011;59504;54.806;9.640;2022-12-18T10:52:55;15.55;;;6.53;;
71667;SDS011;59504;54.806;9.640;2022-12-18T10:55:16;12.80;;;6.25;;
71667;SDS011;59504;54.806;9.640;2022-12-18T10:57:38;13.10;;;6.22;;
71667;SDS011;59504;54.806;9.640;2022-12-18T10:59:59;12.63;;;5.97;;
71667;SDS011;59504;54.806;9.640;2022-12-18T11:02:38;14.60;;;6.32;;
71667;SDS011;59504;54.806;9.640;2022-12-18T11:04:57;15.75;;;6.50;;
71667;SDS011;59504;54.806;9.640;2022-12-18T11:07:16;14.43;;;6.07;;
71667;SDS011;59504;54.806;9.640;2022-12-18T11:09:36;14.73;;;6.53;;
71667;SDS011;59504;54.806;9.640;2022-12-18T11:11:58;11.10;;;5.25;;
71667;SDS011;59504;54.806;9.640;2022-12-18T11:14:21;11.75;;;5.97;;
71667;SDS011;59504;54.806;9.640;2022-12-18T11:16:46;13.18;;;6.03;;
71667;SDS011;59504;54.806;9.640;2022-12-18T11:21:38;10.82;;;5.60;;
71667;SDS011;59504;54.806;9.640;2022-12-18T11:24:00;16.10;;;5.40;;
71667;SDS011;59504;54.806;9.640;2022-12-18T11:26:20;12.00;;;5.68;;
71667;SDS011;59504;54.806;9.640;2022-12-18T11:28:46;10.80;;;4.90;;
71667;SDS011;59504;54.806;9.640;2022-12-18T11:33:33;12.20;;;4.60;;
71667;SDS011;59504;54.806;9.640;2022-12-18T11:35:58;9.20;;;4.65;;
71667;SDS011;59504;54.806;9.640;2022-12-18T11:40:54;10.80;;;5.20;;
71667;SDS011;59504;54.806;9.640;2022-12-18T11:43:35;14.70;;;5.00;;
71667;SDS011;59504;54.806;9.640;2022-12-18T11:48:26;13.05;;;5.25;;
71667;SDS011;59504;54.806;9.640;2022-12-18T11:50:58;13.02;;;5.05;;
71667;SDS011;59504;54.806;9.640;2022-12-18T11:53:20;13.55;;;5.20;;
71667;SDS011;59504;54.806;9.640;2022-12-18T11:58:19;9.57;;;4.80;;
71667;SDS011;59504;54.806;9.640;2022-12-18T12:17:23;12.25;;;4.72;;
71667;SDS011;59504;54.806;9.640;2022-12-18T12:19:54;11.43;;;4.30;;
71667;SDS011;59504;54.806;9.640;2022-12-18T12:22:52;14.27;;;6.00;;
71667;SDS011;59504;54.806;9.640;2022-12-18T12:28:30;10.32;;;4.80;;
71667;SDS011;59504;54.806;9.640;2022-12-18T12:33:48;9.90;;;4.88;;
71667;SDS011;59504;54.806;9.640;2022-12-18T12:39:09;12.45;;;5.15;;
71667;SDS011;59504;54.806;9.640;2022-12-18T12:41:33;10.52;;;5.55;;
71667;SDS011;59504;54.806;9.640;2022-12-18T12:47:00;13.18;;;5.88;;
71667;SDS011;59504;54.806;9.640;2022-12-18T12:49:28;10.07;;;5.30;;
71667;SDS011;59504;54.806;9.640;2022-12-18T12:52:05;14.75;;;5.63;;
71667;SDS011;59504;54.806;9.640;2022-12-18T12:54:28;10.70;;;4.95;;
71667;SDS011;59504;54.806;9.640;2022-12-18T12:57:01;10.75;;;5.20;;
71667;SDS011;59504;54.806;9.640;2022-12-18T13:00:24;11.73;;;5.65;;
71667;SDS011;59504;54.806;9.640;2022-12-18T13:05:26;14.98;;;5.88;;
71667;SDS011;59504;54.806;9.640;2022-12-18T13:08:05;10.02;;;5.40;;
71667;SDS011;59504;54.806;9.640;2022-12-18T13:10:34;12.23;;;5.55;;
71667;SDS011;59504;54.806;9.640;2022-12-18T13:12:57;11.32;;;6.30;;
71667;SDS011;59504;54.806;9.640;2022-12-18T13:15:21;13.63;;;5.88;;
71667;SDS011;59504;54.806;9.640;2022-12-18T13:17:44;16.10;;;6.13;;
71667;SDS011;59504;54.806;9.640;2022-12-18T13:20:07;14.25;;;6.10;;
71667;SDS011;59504;54.806;9.640;2022-12-18T13:22:48;13.15;;;6.32;;
71667;SDS011;59504;54.806;9.640;2022-12-18T13:25:28;13.98;;;5.85;;
71667;SDS011;59504;54.806;9.640;2022-12-18T13:35:38;13.70;;;6.18;;
71667;SDS011;59504;54.806;9.640;2022-12-18T13:38:20;14.48;;;6.22;;
71667;SDS011;59504;54.806;9.640;2022-12-18T13:40:53;11.73;;;5.95;;
71667;SDS011;59504;54.806;9.640;2022-12-18T13:45:43;13.38;;;6.03;;
71667;SDS011;59504;54.806;9.640;2022-12-18T13:48:03;13.40;;;5.78;;
71667;SDS011;59504;54.806;9.640;2022-12-18T13:50:24;14.55;;;6.60;;
71667;SDS011;59504;54.806;9.640;2022-12-18T13:52:44;14.77;;;6.38;;
71667;SDS011;59504;54.806;9.640;2022-12-18T13:55:05;12.93;;;6.32;;
71667;SDS011;59504;54.806;9.640;2022-12-18T13:57:34;13.98;;;5.95;;
71667;SDS011;59504;54.806;9.640;2022-12-18T13:59:57;15.43;;;6.53;;
71667;SDS011;59504;54.806;9.640;2022-12-18T14:02:18;16.00;;;6.93;;
71667;SDS011;59504;54.806;9.640;2022-12-18T14:04:40;14.63;;;6.18;;
71667;SDS011;59504;54.806;9.640;2022-12-18T14:07:12;14.50;;;5.97;;
71667;SDS011;59504;54.806;9.640;2022-12-18T14:09:58;17.70;;;6.63;;
71667;SDS011;59504;54.806;9.640;2022-12-18T14:12:26;34.55;;;18.38;;
71667;SDS011;59504;54.806;9.640;2022-12-18T14:15:49;18.10;;;8.18;;
71667;SDS011;59504;54.806;9.640;2022-12-18T14:17:54;11.90;;;6.05;;
71667;SDS011;59504;54.806;9.640;2022-12-18T14:20:18;11.27;;;6.20;;
71667;SDS011;59504;54.806;9.640;2022-12-18T14:22:39;16.77;;;7.15;;
71667;SDS011;59504;54.806;9.640;2022-12-18T14:27:44;14.82;;;6.93;;
71667;SDS011;59504;54.806;9.640;2022-12-18T14:32:43;16.77;;;6.68;;
71667;SDS011;59504;54.806;9.640;2022-12-18T14:35:12;15.73;;;6.82;;
71667;SDS011;59504;54.806;9.640;2022-12-18T14:37:32;16.50;;;6.45;;
71667;SDS011;59504;54.806;9.640;2022-12-18T14:39:55;15.52;;;6.53;;
71667;SDS011;59504;54.806;9.640;2022-12-18T14:42:18;13.93;;;6.13;;
71667;SDS011;59504;54.806;9.640;2022-12-18T14:44:37;13.75;;;7.13;;
71667;SDS011;59504;54.806;9.640;2022-12-18T14:46:57;16.58;;;7.50;;
71667;SDS011;59504;54.806;9.640;2022-12-18T14:49:29;15.13;;;7.32;;
71667;SDS011;59504;54.806;9.640;2022-12-18T14:51:59;16.35;;;6.82;;
71667;SDS011;59504;54.806;9.640;2022-12-18T14:54:21;18.42;;;6.80;;
71667;SDS011;59504;54.806;9.640;2022-12-18T14:56:46;13.77;;;6.75;;
71667;SDS011;59504;54.806;9.640;2022-12-18T14:59:14;17.55;;;6.85;;
71667;SDS011;59504;54.806;9.640;2022-12-18T15:01:39;21.55;;;7.90;;
71667;SDS011;59504;54.806;9.640;2022-12-18T15:06:47;16.15;;;7.53;;
71667;SDS011;59504;54.806;9.640;2022-12-18T15:09:20;16.13;;;7.78;;
71667;SDS011;59504;54.806;9.640;2022-12-18T15:16:40;19.13;;;8.45;;
71667;SDS011;59504;54.806;9.640;2022-12-18T15:18:59;17.70;;;8.40;;
71667;SDS011;59504;54.806;9.640;2022-12-18T15:21:20;16.13;;;8.25;;
71667;SDS011;59504;54.806;9.640;2022-12-18T15:23:52;19.95;;;8.98;;
71667;SDS011;59504;54.806;9.640;2022-12-18T15:26:12;21.35;;;9.18;;
71667;SDS011;59504;54.806;9.640;2022-12-18T15:33:31;24.15;;;9.48;;
71667;SDS011;59504;54.806;9.640;2022-12-18T15:35:56;23.92;;;8.90;;
71667;SDS011;59504;54.806;9.640;2022-12-18T15:38:20;19.35;;;7.95;;
71667;SDS011;59504;54.806;9.640;2022-12-18T15:40:39;18.08;;;7.22;;
71667;SDS011;59504;54.806;9.640;2022-12-18T15:42:58;16.50;;;7.75;;
71667;SDS011;59504;54.806;9.640;2022-12-18T15:45:36;16.48;;;7.22;;
71667;SDS011;59504;54.806;9.640;2022-12-18T15:47:55;21.73;;;8.43;;